sensor_id;sensor_type;location;lat;lon;timestamp;P1;durP1;ratioP1;P2;durP2;ratioP2
39924;SDS011;25592;49.986;11.618;2023-05-10T00:02:39;6.18;;;2.30;;
39924;SDS011;25592;49.986;11.618;2023-05-10T00:05:25;3.80;;;2.35;;
39924;SDS011;25592;49.986;11.618;2023-05-10T00:08:11;5.68;;;2.70;;
39924;SDS011;25592;49.986;11.618;2023-05-10T00:10:56;5.50;;;2.63;;
39924;SDS011;25592;49.986;11.618;2023-05-10T00:13:41;19.92;;;10.02;;
39924;SDS011;25592;49.986;11.618;2023-05-10T00:16:27;28.88;;;12.27;;
39924;SDS011;25592;49.986;11.618;2023-05-10T00:19:12;8.70;;;4.22;;
39924;SDS011;25592;49.986;11.618;2023-05-10T00:21:58;4.97;;;2.53;;
39924;SDS011;25592;49.986;11.618;2023-05-10T00:24:43;6.30;;;2.65;;
39924;SDS011;25592;49.986;11.618;2023-05-10T00:27:29;5.15;;;2.65;;
39924;SDS011;25592;49.986;11.618;2023-05-10T00:30:14;5.72;;;2.35;;
39924;SDS011;25592;49.986;11.618;2023-05-10T00:33:00;5.65;;;2.83;;
39924;SDS011;25592;49.986;11.618;2023-05-10T00:35:45;7.50;;;2.45;;
39924;SDS011;25592;49.986;11.618;2023-05-10T00:38:30;3.58;;;2.38;;
39924;SDS011;25592;49.986;11.618;2023-05-10T00:41:16;4.85;;;2.58;;
39924;SDS011;25592;49.986;11.618;2023-05-10T00:44:02;3.47;;;2.28;;
39924;SDS011;25592;49.986;11.618;2023-05-10T00:46:47;4.68;;;2.33;;
39924;SDS011;25592;49.986;11.618;2023-05-10T00:49:34;3.88;;;2.55;;
39924;SDS011;25592;49.986;11.618;2023-05-10T00:52:21;5.93;;;3.08;;
39924;SDS011;25592;49.986;11.618;2023-05-10T00:55:09;3.72;;;2.35;;
39924;SDS011;25592;49.986;11.618;2023-05-10T00:57:56;6.15;;;2.33;;
39924;SDS011;25592;49.986;11.618;2023-05-10T01:00:41;5.90;;;2.40;;
39924;SDS011;25592;49.986;11.618;2023-05-10T01:03:28;8.65;;;2.50;;
39924;SDS011;25592;49.986;11.618;2023-05-10T01:06:14;5.93;;;3.03;;
39924;SDS011;25592;49.986;11.618;2023-05-10T01:08:59;4.28;;;2.30;;
39924;SDS011;25592;49.986;11.618;2023-05-10T01:11:45;5.55;;;2.60;;
39924;SDS011;25592;49.986;11.618;2023-05-10T01:14:30;4.57;;;2.53;;
39924;SDS011;25592;49.986;11.618;2023-05-10T01:17:16;6.90;;;2.70;;
39924;SDS011;25592;49.986;11.618;2023-05-10T01:20:02;5.90;;;2.28;;
39924;SDS011;25592;49.986;11.618;2023-05-10T01:26:17;4.88;;;2.53;;
39924;SDS011;25592;49.986;11.618;2023-05-10T01:32:26;4.60;;;2.65;;
39924;SDS011;25592;49.986;11.618;2023-05-10T01:47:24;5.20;;;2.75;;
39924;SDS011;25592;49.986;11.618;2023-05-10T01:50:27;5.63;;;2.42;;
39924;SDS011;25592;49.986;11.618;2023-05-10T01:53:16;5.75;;;2.60;;
39924;SDS011;25592;49.986;11.618;2023-05-10T01:56:03;6.63;;;2.53;;
39924;SDS011;25592;49.986;11.618;2023-05-10T01:58:50;5.00;;;2.70;;
39924;SDS011;25592;49.986;11.618;2023-05-10T02:01:36;6.60;;;2.47;;
39924;SDS011;25592;49.986;11.618;2023-05-10T02:04:23;5.72;;;2.80;;
39924;SDS011;25592;49.986;11.618;2023-05-10T02:07:09;8.75;;;2.65;;
39924;SDS011;25592;49.986;11.618;2023-05-10T02:09:55;4.53;;;2.70;;
39924;SDS011;25592;49.986;11.618;2023-05-10T02:12:43;4.20;;;2.45;;
39924;SDS011;25592;49.986;11.618;2023-05-10T02:15:31;4.75;;;2.58;;
39924;SDS011;25592;49.986;11.618;2023-05-10T02:18:18;7.07;;;3.67;;
39924;SDS011;25592;49.986;11.618;2023-05-10T02:21:03;5.55;;;2.50;;
39924;SDS011;25592;49.986;11.618;2023-05-10T02:23:50;4.30;;;2.40;;
39924;SDS011;25592;49.986;11.618;2023-05-10T02:26:36;5.70;;;3.00;;
39924;SDS011;25592;49.986;11.618;2023-05-10T02:29:23;4.45;;;2.80;;
39924;SDS011;25592;49.986;11.618;2023-05-10T02:32:11;5.82;;;2.72;;
39924;SDS011;25592;49.986;11.618;2023-05-10T02:34:57;4.80;;;2.50;;
39924;SDS011;25592;49.986;11.618;2023-05-10T02:37:44;4.95;;;2.90;;
39924;SDS011;25592;49.986;11.618;2023-05-10T02:40:31;4.65;;;2.80;;
39924;SDS011;25592;49.986;11.618;2023-05-10T02:43:17;5.25;;;2.55;;
39924;SDS011;25592;49.986;11.618;2023-05-10T02:46:03;5.65;;;2.80;;
39924;SDS011;25592;49.986;11.618;2023-05-10T02:48:49;4.30;;;2.85;;
39924;SDS011;25592;49.986;11.618;2023-05-10T02:51:35;6.35;;;2.63;;
39924;SDS011;25592;49.986;11.618;2023-05-10T02:54:27;6.18;;;3.63;;
39924;SDS011;25592;49.986;11.618;2023-05-10T02:57:16;7.05;;;2.75;;
39924;SDS011;25592;49.986;11.618;2023-05-10T03:00:03;5.15;;;2.70;;
39924;SDS011;25592;49.986;11.618;2023-05-10T03:02:48;4.72;;;2.65;;
39924;SDS011;25592;49.986;11.618;2023-05-10T03:05:34;4.50;;;2.88;;
39924;SDS011;25592;49.986;11.618;2023-05-10T03:08:19;4.47;;;2.47;;
39924;SDS011;25592;49.986;11.618;2023-05-10T03:14:31;5.90;;;3.00;;
39924;SDS011;25592;49.986;11.618;2023-05-10T03:17:29;5.45;;;2.63;;
39924;SDS011;25592;49.986;11.618;2023-05-10T03:26:06;4.20;;;2.85;;
39924;SDS011;25592;49.986;11.618;2023-05-10T03:28:52;5.75;;;3.03;;
39924;SDS011;25592;49.986;11.618;2023-05-10T03:31:38;6.22;;;2.88;;
39924;SDS011;25592;49.986;11.618;2023-05-10T03:34:24;4.95;;;2.80;;
39924;SDS011;25592;49.986;11.618;2023-05-10T03:37:10;6.57;;;2.92;;
39924;SDS011;25592;49.986;11.618;2023-05-10T03:39:55;4.25;;;2.83;;
39924;SDS011;25592;49.986;11.618;2023-05-10T03:42:41;4.97;;;2.67;;
39924;SDS011;25592;49.986;11.618;2023-05-10T03:45:26;6.38;;;3.22;;
39924;SDS011;25592;49.986;11.618;2023-05-10T03:48:12;7.55;;;3.10;;
39924;SDS011;25592;49.986;11.618;2023-05-10T03:50:58;6.78;;;2.97;;
39924;SDS011;25592;49.986;11.618;2023-05-10T03:53:44;4.50;;;2.65;;
39924;SDS011;25592;49.986;11.618;2023-05-10T03:56:29;4.05;;;2.63;;
39924;SDS011;25592;49.986;11.618;2023-05-10T03:59:14;5.43;;;3.15;;
39924;SDS011;25592;49.986;11.618;2023-05-10T04:02:00;4.63;;;3.03;;
39924;SDS011;25592;49.986;11.618;2023-05-10T04:04:45;5.88;;;2.78;;
39924;SDS011;25592;49.986;11.618;2023-05-10T04:07:31;5.50;;;3.08;;
39924;SDS011;25592;49.986;11.618;2023-05-10T04:10:16;8.15;;;3.22;;
39924;SDS011;25592;49.986;11.618;2023-05-10T04:13:02;5.10;;;2.97;;
39924;SDS011;25592;49.986;11.618;2023-05-10T04:15:48;4.57;;;3.20;;
39924;SDS011;25592;49.986;11.618;2023-05-10T04:18:33;5.53;;;3.13;;
39924;SDS011;25592;49.986;11.618;2023-05-10T04:21:19;7.22;;;3.85;;
39924;SDS011;25592;49.986;11.618;2023-05-10T04:24:04;5.43;;;3.00;;
39924;SDS011;25592;49.986;11.618;2023-05-10T04:26:50;8.45;;;3.17;;
39924;SDS011;25592;49.986;11.618;2023-05-10T04:29:35;5.95;;;3.08;;
39924;SDS011;25592;49.986;11.618;2023-05-10T04:32:21;5.50;;;3.45;;
39924;SDS011;25592;49.986;11.618;2023-05-10T04:35:07;5.35;;;3.30;;
39924;SDS011;25592;49.986;11.618;2023-05-10T04:37:54;6.55;;;3.22;;
39924;SDS011;25592;49.986;11.618;2023-05-10T04:40:39;6.43;;;3.33;;
39924;SDS011;25592;49.986;11.618;2023-05-10T04:43:24;8.77;;;3.53;;
39924;SDS011;25592;49.986;11.618;2023-05-10T04:46:10;6.45;;;4.00;;
39924;SDS011;25592;49.986;11.618;2023-05-10T04:48:56;6.03;;;3.30;;
39924;SDS011;25592;49.986;11.618;2023-05-10T04:51:41;6.75;;;4.72;;
39924;SDS011;25592;49.986;11.618;2023-05-10T04:54:27;9.75;;;3.75;;
39924;SDS011;25592;49.986;11.618;2023-05-10T04:57:12;9.07;;;4.18;;
39924;SDS011;25592;49.986;11.618;2023-05-10T04:59:58;6.50;;;4.05;;
39924;SDS011;25592;49.986;11.618;2023-05-10T05:02:44;6.55;;;4.03;;
39924;SDS011;25592;49.986;11.618;2023-05-10T05:05:30;6.40;;;3.85;;
39924;SDS011;25592;49.986;11.618;2023-05-10T05:08:15;5.97;;;4.10;;
39924;SDS011;25592;49.986;11.618;2023-05-10T05:11:01;5.40;;;3.70;;
39924;SDS011;25592;49.986;11.618;2023-05-10T05:13:46;7.95;;;4.68;;
39924;SDS011;25592;49.986;11.618;2023-05-10T05:16:32;8.27;;;3.97;;
39924;SDS011;25592;49.986;11.618;2023-05-10T05:19:17;9.85;;;4.25;;
39924;SDS011;25592;49.986;11.618;2023-05-10T05:22:03;8.15;;;3.83;;
39924;SDS011;25592;49.986;11.618;2023-05-10T05:24:48;6.00;;;4.10;;
39924;SDS011;25592;49.986;11.618;2023-05-10T05:27:34;11.40;;;4.90;;
39924;SDS011;25592;49.986;11.618;2023-05-10T05:30:19;7.15;;;4.40;;
39924;SDS011;25592;49.986;11.618;2023-05-10T05:33:04;8.30;;;4.25;;
39924;SDS011;25592;49.986;11.618;2023-05-10T05:35:50;9.30;;;3.92;;
39924;SDS011;25592;49.986;11.618;2023-05-10T05:38:35;7.60;;;4.45;;
39924;SDS011;25592;49.986;11.618;2023-05-10T05:41:21;7.80;;;4.50;;
39924;SDS011;25592;49.986;11.618;2023-05-10T05:44:06;8.30;;;4.70;;
39924;SDS011;25592;49.986;11.618;2023-05-10T05:46:52;7.07;;;4.15;;
39924;SDS011;25592;49.986;11.618;2023-05-10T05:49:37;6.75;;;4.68;;
39924;SDS011;25592;49.986;11.618;2023-05-10T05:52:23;7.57;;;5.07;;
39924;SDS011;25592;49.986;11.618;2023-05-10T05:55:08;9.43;;;4.60;;
39924;SDS011;25592;49.986;11.618;2023-05-10T05:57:53;7.43;;;4.63;;
39924;SDS011;25592;49.986;11.618;2023-05-10T06:00:39;7.28;;;4.72;;
39924;SDS011;25592;49.986;11.618;2023-05-10T06:03:24;7.00;;;4.78;;
39924;SDS011;25592;49.986;11.618;2023-05-10T06:06:10;11.18;;;6.47;;
39924;SDS011;25592;49.986;11.618;2023-05-10T06:08:55;8.93;;;5.28;;
39924;SDS011;25592;49.986;11.618;2023-05-10T06:11:40;9.27;;;5.93;;
39924;SDS011;25592;49.986;11.618;2023-05-10T06:14:26;8.43;;;5.50;;
39924;SDS011;25592;49.986;11.618;2023-05-10T06:17:11;9.40;;;6.13;;
39924;SDS011;25592;49.986;11.618;2023-05-10T06:19:57;14.27;;;6.60;;
39924;SDS011;25592;49.986;11.618;2023-05-10T06:22:42;10.90;;;6.43;;
39924;SDS011;25592;49.986;11.618;2023-05-10T06:25:27;10.35;;;4.93;;
39924;SDS011;25592;49.986;11.618;2023-05-10T06:28:13;7.53;;;4.90;;
39924;SDS011;25592;49.986;11.618;2023-05-10T06:30:59;7.57;;;5.28;;
39924;SDS011;25592;49.986;11.618;2023-05-10T06:33:44;8.25;;;4.43;;
39924;SDS011;25592;49.986;11.618;2023-05-10T06:36:30;8.15;;;5.07;;
39924;SDS011;25592;49.986;11.618;2023-05-10T06:39:15;11.38;;;4.50;;
39924;SDS011;25592;49.986;11.618;2023-05-10T06:42:01;6.18;;;3.70;;
39924;SDS011;25592;49.986;11.618;2023-05-10T06:44:47;7.13;;;4.15;;
39924;SDS011;25592;49.986;11.618;2023-05-10T06:47:32;6.78;;;3.67;;
39924;SDS011;25592;49.986;11.618;2023-05-10T06:50:22;4.70;;;3.65;;
39924;SDS011;25592;49.986;11.618;2023-05-10T06:53:07;6.72;;;3.95;;
39924;SDS011;25592;49.986;11.618;2023-05-10T06:55:53;6.55;;;4.18;;
39924;SDS011;25592;49.986;11.618;2023-05-10T06:58:38;5.20;;;3.58;;
39924;SDS011;25592;49.986;11.618;2023-05-10T07:01:24;6.40;;;3.70;;
39924;SDS011;25592;49.986;11.618;2023-05-10T07:04:10;6.45;;;4.10;;
39924;SDS011;25592;49.986;11.618;2023-05-10T07:06:55;7.20;;;4.30;;
39924;SDS011;25592;49.986;11.618;2023-05-10T07:09:41;7.50;;;4.50;;
39924;SDS011;25592;49.986;11.618;2023-05-10T07:12:27;8.07;;;4.53;;
39924;SDS011;25592;49.986;11.618;2023-05-10T07:15:12;6.20;;;3.80;;
39924;SDS011;25592;49.986;11.618;2023-05-10T07:17:57;5.70;;;3.70;;
39924;SDS011;25592;49.986;11.618;2023-05-10T07:20:43;6.43;;;3.47;;
39924;SDS011;25592;49.986;11.618;2023-05-10T07:23:28;6.28;;;4.43;;
39924;SDS011;25592;49.986;11.618;2023-05-10T07:26:14;11.57;;;4.72;;
39924;SDS011;25592;49.986;11.618;2023-05-10T07:29:00;6.20;;;4.13;;
39924;SDS011;25592;49.986;11.618;2023-05-10T07:31:45;7.25;;;4.70;;
39924;SDS011;25592;49.986;11.618;2023-05-10T07:34:31;5.50;;;3.97;;
39924;SDS011;25592;49.986;11.618;2023-05-10T07:37:16;7.55;;;4.00;;
39924;SDS011;25592;49.986;11.618;2023-05-10T07:40:02;6.40;;;4.15;;
39924;SDS011;25592;49.986;11.618;2023-05-10T07:42:47;4.70;;;3.58;;
39924;SDS011;25592;49.986;11.618;2023-05-10T07:45:33;5.38;;;3.50;;
39924;SDS011;25592;49.986;11.618;2023-05-10T07:48:18;3.33;;;2.35;;
39924;SDS011;25592;49.986;11.618;2023-05-10T07:51:04;6.35;;;3.58;;
39924;SDS011;25592;49.986;11.618;2023-05-10T07:53:51;7.70;;;4.10;;
39924;SDS011;25592;49.986;11.618;2023-05-10T07:56:36;5.88;;;3.65;;
39924;SDS011;25592;49.986;11.618;2023-05-10T07:59:22;4.90;;;3.13;;
39924;SDS011;25592;49.986;11.618;2023-05-10T08:02:07;4.85;;;2.80;;
39924;SDS011;25592;49.986;11.618;2023-05-10T08:04:53;4.63;;;2.95;;
39924;SDS011;25592;49.986;11.618;2023-05-10T08:07:38;4.47;;;2.55;;
39924;SDS011;25592;49.986;11.618;2023-05-10T08:10:24;3.50;;;2.22;;
39924;SDS011;25592;49.986;11.618;2023-05-10T08:13:09;5.93;;;3.30;;
39924;SDS011;25592;49.986;11.618;2023-05-10T08:15:55;4.03;;;2.42;;
39924;SDS011;25592;49.986;11.618;2023-05-10T08:18:40;4.78;;;2.90;;
39924;SDS011;25592;49.986;11.618;2023-05-10T08:21:26;4.05;;;2.47;;
39924;SDS011;25592;49.986;11.618;2023-05-10T08:24:11;4.60;;;2.33;;
39924;SDS011;25592;49.986;11.618;2023-05-10T08:26:56;3.53;;;2.05;;
39924;SDS011;25592;49.986;11.618;2023-05-10T08:29:42;6.68;;;2.15;;
39924;SDS011;25592;49.986;11.618;2023-05-10T08:32:34;4.00;;;2.90;;
39924;SDS011;25592;49.986;11.618;2023-05-10T08:35:19;5.05;;;2.55;;
39924;SDS011;25592;49.986;11.618;2023-05-10T08:38:05;4.90;;;3.03;;
39924;SDS011;25592;49.986;11.618;2023-05-10T08:40:50;4.00;;;2.55;;
39924;SDS011;25592;49.986;11.618;2023-05-10T08:43:41;3.47;;;2.45;;
39924;SDS011;25592;49.986;11.618;2023-05-10T08:46:31;4.50;;;2.97;;
39924;SDS011;25592;49.986;11.618;2023-05-10T08:49:19;6.22;;;2.90;;
39924;SDS011;25592;49.986;11.618;2023-05-10T08:52:06;5.55;;;2.67;;
39924;SDS011;25592;49.986;11.618;2023-05-10T08:54:52;3.97;;;2.65;;
39924;SDS011;25592;49.986;11.618;2023-05-10T08:57:38;5.70;;;2.70;;
39924;SDS011;25592;49.986;11.618;2023-05-10T09:00:23;4.97;;;2.92;;
39924;SDS011;25592;49.986;11.618;2023-05-10T09:03:09;5.97;;;3.10;;
39924;SDS011;25592;49.986;11.618;2023-05-10T09:05:55;6.07;;;3.83;;
39924;SDS011;25592;49.986;11.618;2023-05-10T09:08:41;3.88;;;2.40;;
39924;SDS011;25592;49.986;11.618;2023-05-10T09:11:27;4.07;;;2.63;;
39924;SDS011;25592;49.986;11.618;2023-05-10T09:14:14;4.07;;;2.45;;
39924;SDS011;25592;49.986;11.618;2023-05-10T09:17:00;4.15;;;2.80;;
39924;SDS011;25592;49.986;11.618;2023-05-10T09:19:46;3.75;;;2.17;;
39924;SDS011;25592;49.986;11.618;2023-05-10T09:22:32;3.95;;;2.20;;
39924;SDS011;25592;49.986;11.618;2023-05-10T09:25:18;3.60;;;2.28;;
39924;SDS011;25592;49.986;11.618;2023-05-10T09:28:07;3.60;;;2.20;;
39924;SDS011;25592;49.986;11.618;2023-05-10T09:30:53;3.30;;;1.95;;
39924;SDS011;25592;49.986;11.618;2023-05-10T09:33:47;5.78;;;2.50;;
39924;SDS011;25592;49.986;11.618;2023-05-10T09:36:33;3.40;;;2.28;;
39924;SDS011;25592;49.986;11.618;2023-05-10T09:39:18;4.00;;;2.50;;
39924;SDS011;25592;49.986;11.618;2023-05-10T09:42:07;3.13;;;1.90;;
39924;SDS011;25592;49.986;11.618;2023-05-10T09:44:53;3.97;;;2.35;;
39924;SDS011;25592;49.986;11.618;2023-05-10T09:47:38;3.17;;;2.13;;
39924;SDS011;25592;49.986;11.618;2023-05-10T09:50:24;3.35;;;2.20;;
39924;SDS011;25592;49.986;11.618;2023-05-10T09:53:10;3.05;;;1.90;;
39924;SDS011;25592;49.986;11.618;2023-05-10T09:55:59;2.88;;;1.95;;
39924;SDS011;25592;49.986;11.618;2023-05-10T09:58:44;3.38;;;2.00;;
39924;SDS011;25592;49.986;11.618;2023-05-10T10:01:30;4.53;;;2.20;;
39924;SDS011;25592;49.986;11.618;2023-05-10T10:04:15;2.63;;;1.70;;
39924;SDS011;25592;49.986;11.618;2023-05-10T10:07:02;4.53;;;2.00;;
39924;SDS011;25592;49.986;11.618;2023-05-10T10:09:49;2.88;;;1.90;;
39924;SDS011;25592;49.986;11.618;2023-05-10T10:12:34;4.45;;;2.10;;
39924;SDS011;25592;49.986;11.618;2023-05-10T10:15:21;3.00;;;1.90;;
39924;SDS011;25592;49.986;11.618;2023-05-10T10:18:07;2.90;;;1.80;;
39924;SDS011;25592;49.986;11.618;2023-05-10T10:20:57;2.10;;;1.50;;
39924;SDS011;25592;49.986;11.618;2023-05-10T10:23:42;3.38;;;1.30;;
39924;SDS011;25592;49.986;11.618;2023-05-10T10:26:28;1.60;;;1.10;;
39924;SDS011;25592;49.986;11.618;2023-05-10T10:29:31;1.58;;;0.90;;
39924;SDS011;25592;49.986;11.618;2023-05-10T10:36:01;5.00;;;1.40;;
39924;SDS011;25592;49.986;11.618;2023-05-10T10:41:34;2.17;;;1.20;;
39924;SDS011;25592;49.986;11.618;2023-05-10T10:47:25;2.60;;;1.23;;
39924;SDS011;25592;49.986;11.618;2023-05-10T10:50:15;1.48;;;0.90;;
39924;SDS011;25592;49.986;11.618;2023-05-10T10:53:10;2.25;;;1.08;;
39924;SDS011;25592;49.986;11.618;2023-05-10T10:56:05;1.52;;;1.02;;
39924;SDS011;25592;49.986;11.618;2023-05-10T10:59:00;3.72;;;1.10;;
39924;SDS011;25592;49.986;11.618;2023-05-10T11:01:46;2.95;;;1.00;;
39924;SDS011;25592;49.986;11.618;2023-05-10T11:04:43;2.03;;;1.20;;
39924;SDS011;25592;49.986;11.618;2023-05-10T11:07:31;3.00;;;1.20;;
39924;SDS011;25592;49.986;11.618;2023-05-10T11:10:19;1.60;;;1.00;;
39924;SDS011;25592;49.986;11.618;2023-05-10T11:13:06;1.85;;;1.05;;
39924;SDS011;25592;49.986;11.618;2023-05-10T11:15:55;1.55;;;0.98;;
39924;SDS011;25592;49.986;11.618;2023-05-10T11:18:53;1.60;;;1.00;;
39924;SDS011;25592;49.986;11.618;2023-05-10T11:24:56;1.40;;;1.00;;
39924;SDS011;25592;49.986;11.618;2023-05-10T11:27:43;1.23;;;1.00;;
39924;SDS011;25592;49.986;11.618;2023-05-10T11:30:29;2.13;;;1.00;;
39924;SDS011;25592;49.986;11.618;2023-05-10T11:33:16;2.05;;;1.15;;
39924;SDS011;25592;49.986;11.618;2023-05-10T11:36:02;1.38;;;0.90;;
39924;SDS011;25592;49.986;11.618;2023-05-10T11:38:48;1.48;;;0.95;;
39924;SDS011;25592;49.986;11.618;2023-05-10T11:41:33;2.50;;;0.95;;
39924;SDS011;25592;49.986;11.618;2023-05-10T11:44:19;2.97;;;1.15;;
39924;SDS011;25592;49.986;11.618;2023-05-10T11:47:04;3.50;;;0.93;;
39924;SDS011;25592;49.986;11.618;2023-05-10T11:49:50;2.05;;;1.10;;
39924;SDS011;25592;49.986;11.618;2023-05-10T11:52:36;1.52;;;0.95;;
39924;SDS011;25592;49.986;11.618;2023-05-10T11:55:22;6.40;;;2.45;;
39924;SDS011;25592;49.986;11.618;2023-05-10T11:58:08;2.13;;;0.95;;
39924;SDS011;25592;49.986;11.618;2023-05-10T12:00:54;1.60;;;0.90;;
39924;SDS011;25592;49.986;11.618;2023-05-10T12:03:39;3.53;;;1.15;;
39924;SDS011;25592;49.986;11.618;2023-05-10T12:06:29;2.08;;;0.90;;
39924;SDS011;25592;49.986;11.618;2023-05-10T12:09:16;3.60;;;2.10;;
39924;SDS011;25592;49.986;11.618;2023-05-10T12:12:16;3.65;;;1.80;;
39924;SDS011;25592;49.986;11.618;2023-05-10T12:15:01;6.65;;;2.00;;
39924;SDS011;25592;49.986;11.618;2023-05-10T12:17:48;2.00;;;1.10;;
39924;SDS011;25592;49.986;11.618;2023-05-10T12:20:34;2.72;;;0.88;;
39924;SDS011;25592;49.986;11.618;2023-05-10T12:23:20;3.38;;;1.45;;
39924;SDS011;25592;49.986;11.618;2023-05-10T12:26:06;2.10;;;1.10;;
39924;SDS011;25592;49.986;11.618;2023-05-10T12:28:54;1.55;;;1.08;;
39924;SDS011;25592;49.986;11.618;2023-05-10T12:31:56;4.30;;;1.20;;
39924;SDS011;25592;49.986;11.618;2023-05-10T12:34:43;4.15;;;1.00;;
39924;SDS011;25592;49.986;11.618;2023-05-10T12:37:31;7.70;;;1.10;;
39924;SDS011;25592;49.986;11.618;2023-05-10T12:40:20;1.30;;;0.80;;
39924;SDS011;25592;49.986;11.618;2023-05-10T12:43:06;2.38;;;0.95;;
39924;SDS011;25592;49.986;11.618;2023-05-10T12:45:51;1.70;;;0.80;;
39924;SDS011;25592;49.986;11.618;2023-05-10T12:48:37;2.08;;;1.10;;
39924;SDS011;25592;49.986;11.618;2023-05-10T12:51:23;2.00;;;1.38;;
39924;SDS011;25592;49.986;11.618;2023-05-10T12:54:09;2.03;;;0.90;;
39924;SDS011;25592;49.986;11.618;2023-05-10T12:56:54;1.83;;;1.00;;
39924;SDS011;25592;49.986;11.618;2023-05-10T12:59:40;5.15;;;1.98;;
39924;SDS011;25592;49.986;11.618;2023-05-10T13:02:25;4.85;;;1.55;;
39924;SDS011;25592;49.986;11.618;2023-05-10T13:05:10;4.40;;;1.60;;
39924;SDS011;25592;49.986;11.618;2023-05-10T13:07:57;4.57;;;1.88;;
39924;SDS011;25592;49.986;11.618;2023-05-10T13:10:43;3.15;;;1.73;;
39924;SDS011;25592;49.986;11.618;2023-05-10T13:13:28;2.97;;;1.67;;
39924;SDS011;25592;49.986;11.618;2023-05-10T13:16:14;3.58;;;1.48;;
39924;SDS011;25592;49.986;11.618;2023-05-10T13:18:59;2.10;;;1.20;;
39924;SDS011;25592;49.986;11.618;2023-05-10T13:21:44;5.22;;;1.40;;
39924;SDS011;25592;49.986;11.618;2023-05-10T13:24:30;2.63;;;1.27;;
39924;SDS011;25592;49.986;11.618;2023-05-10T13:27:15;3.95;;;1.27;;
39924;SDS011;25592;49.986;11.618;2023-05-10T13:30:01;3.13;;;1.40;;
39924;SDS011;25592;49.986;11.618;2023-05-10T13:32:47;2.88;;;1.10;;
39924;SDS011;25592;49.986;11.618;2023-05-10T13:35:33;2.08;;;1.23;;
39924;SDS011;25592;49.986;11.618;2023-05-10T13:38:18;3.25;;;1.60;;
39924;SDS011;25592;49.986;11.618;2023-05-10T13:41:06;4.38;;;1.35;;
39924;SDS011;25592;49.986;11.618;2023-05-10T13:43:51;2.40;;;1.50;;
39924;SDS011;25592;49.986;11.618;2023-05-10T13:46:36;4.78;;;2.60;;
39924;SDS011;25592;49.986;11.618;2023-05-10T13:49:23;3.13;;;1.90;;
39924;SDS011;25592;49.986;11.618;2023-05-10T13:52:08;4.25;;;2.08;;
39924;SDS011;25592;49.986;11.618;2023-05-10T13:54:54;2.08;;;1.13;;
39924;SDS011;25592;49.986;11.618;2023-05-10T13:57:39;2.35;;;1.52;;
39924;SDS011;25592;49.986;11.618;2023-05-10T14:00:25;2.90;;;1.60;;
39924;SDS011;25592;49.986;11.618;2023-05-10T14:03:10;2.25;;;1.50;;
39924;SDS011;25592;49.986;11.618;2023-05-10T14:05:56;2.38;;;1.40;;
39924;SDS011;25592;49.986;11.618;2023-05-10T14:08:42;2.58;;;1.00;;
39924;SDS011;25592;49.986;11.618;2023-05-10T14:11:27;1.25;;;0.90;;
39924;SDS011;25592;49.986;11.618;2023-05-10T14:14:12;2.28;;;0.90;;
39924;SDS011;25592;49.986;11.618;2023-05-10T14:16:58;1.95;;;0.90;;
39924;SDS011;25592;49.986;11.618;2023-05-10T14:19:44;1.85;;;0.85;;
39924;SDS011;25592;49.986;11.618;2023-05-10T14:22:29;1.85;;;0.77;;
39924;SDS011;25592;49.986;11.618;2023-05-10T14:25:14;1.27;;;0.88;;
39924;SDS011;25592;49.986;11.618;2023-05-10T14:28:00;2.63;;;0.80;;
39924;SDS011;25592;49.986;11.618;2023-05-10T14:30:45;1.75;;;0.93;;
39924;SDS011;25592;49.986;11.618;2023-05-10T14:33:31;1.75;;;1.00;;
39924;SDS011;25592;49.986;11.618;2023-05-10T14:36:17;1.48;;;1.00;;
39924;SDS011;25592;49.986;11.618;2023-05-10T14:39:03;3.08;;;1.30;;
39924;SDS011;25592;49.986;11.618;2023-05-10T14:41:48;1.17;;;0.90;;
39924;SDS011;25592;49.986;11.618;2023-05-10T14:44:34;3.03;;;1.38;;
39924;SDS011;25592;49.986;11.618;2023-05-10T14:47:19;2.50;;;1.05;;
39924;SDS011;25592;49.986;11.618;2023-05-10T14:50:04;1.23;;;0.90;;
39924;SDS011;25592;49.986;11.618;2023-05-10T14:52:50;1.92;;;1.40;;
39924;SDS011;25592;49.986;11.618;2023-05-10T14:55:36;2.30;;;1.40;;
39924;SDS011;25592;49.986;11.618;2023-05-10T14:58:21;3.03;;;1.13;;
39924;SDS011;25592;49.986;11.618;2023-05-10T15:01:06;3.58;;;2.13;;
39924;SDS011;25592;49.986;11.618;2023-05-10T15:03:52;6.55;;;2.08;;
39924;SDS011;25592;49.986;11.618;2023-05-10T15:06:38;4.15;;;1.42;;
39924;SDS011;25592;49.986;11.618;2023-05-10T15:09:24;1.95;;;1.10;;
39924;SDS011;25592;49.986;11.618;2023-05-10T15:12:10;1.50;;;1.00;;
39924;SDS011;25592;49.986;11.618;2023-05-10T15:14:55;3.00;;;1.02;;
39924;SDS011;25592;49.986;11.618;2023-05-10T15:17:41;2.33;;;1.33;;
39924;SDS011;25592;49.986;11.618;2023-05-10T15:20:26;2.17;;;1.10;;
39924;SDS011;25592;49.986;11.618;2023-05-10T15:23:12;2.13;;;1.30;;
39924;SDS011;25592;49.986;11.618;2023-05-10T15:25:57;2.80;;;1.17;;
39924;SDS011;25592;49.986;11.618;2023-05-10T15:28:43;2.17;;;1.30;;
39924;SDS011;25592;49.986;11.618;2023-05-10T15:31:28;3.85;;;1.60;;
39924;SDS011;25592;49.986;11.618;2023-05-10T15:34:14;3.35;;;1.33;;
39924;SDS011;25592;49.986;11.618;2023-05-10T15:36:59;4.15;;;2.30;;
39924;SDS011;25592;49.986;11.618;2023-05-10T15:39:44;6.72;;;4.30;;
39924;SDS011;25592;49.986;11.618;2023-05-10T15:42:30;3.92;;;2.90;;
39924;SDS011;25592;49.986;11.618;2023-05-10T15:45:16;3.33;;;2.40;;
39924;SDS011;25592;49.986;11.618;2023-05-10T15:48:01;3.88;;;2.42;;
39924;SDS011;25592;49.986;11.618;2023-05-10T15:50:47;3.53;;;1.90;;
39924;SDS011;25592;49.986;11.618;2023-05-10T15:53:32;3.42;;;2.00;;
39924;SDS011;25592;49.986;11.618;2023-05-10T15:56:18;3.05;;;1.80;;
39924;SDS011;25592;49.986;11.618;2023-05-10T15:59:03;2.35;;;1.40;;
39924;SDS011;25592;49.986;11.618;2023-05-10T16:01:50;5.72;;;1.67;;
39924;SDS011;25592;49.986;11.618;2023-05-10T16:04:35;3.67;;;2.10;;
39924;SDS011;25592;49.986;11.618;2023-05-10T16:07:21;2.92;;;1.90;;
39924;SDS011;25592;49.986;11.618;2023-05-10T16:10:08;3.20;;;2.00;;
39924;SDS011;25592;49.986;11.618;2023-05-10T16:12:54;3.78;;;2.10;;
39924;SDS011;25592;49.986;11.618;2023-05-10T16:15:39;4.90;;;2.15;;
39924;SDS011;25592;49.986;11.618;2023-05-10T16:18:25;4.45;;;2.63;;
39924;SDS011;25592;49.986;11.618;2023-05-10T16:21:11;3.53;;;2.05;;
39924;SDS011;25592;49.986;11.618;2023-05-10T16:23:57;5.18;;;2.28;;
39924;SDS011;25592;49.986;11.618;2023-05-10T16:26:43;8.75;;;3.55;;
39924;SDS011;25592;49.986;11.618;2023-05-10T16:29:29;4.20;;;2.30;;
39924;SDS011;25592;49.986;11.618;2023-05-10T16:32:15;5.15;;;2.92;;
39924;SDS011;25592;49.986;11.618;2023-05-10T16:35:00;2.55;;;1.60;;
39924;SDS011;25592;49.986;11.618;2023-05-10T16:37:46;3.33;;;2.05;;
39924;SDS011;25592;49.986;11.618;2023-05-10T16:40:31;3.17;;;1.45;;
39924;SDS011;25592;49.986;11.618;2023-05-10T16:43:17;4.47;;;2.65;;
39924;SDS011;25592;49.986;11.618;2023-05-10T16:46:08;2.90;;;1.50;;
39924;SDS011;25592;49.986;11.618;2023-05-10T16:48:54;3.28;;;1.63;;
39924;SDS011;25592;49.986;11.618;2023-05-10T16:51:39;2.45;;;1.70;;
39924;SDS011;25592;49.986;11.618;2023-05-10T16:54:24;5.13;;;1.58;;
39924;SDS011;25592;49.986;11.618;2023-05-10T16:57:10;2.72;;;1.42;;
39924;SDS011;25592;49.986;11.618;2023-05-10T16:59:55;2.42;;;1.27;;
39924;SDS011;25592;49.986;11.618;2023-05-10T17:02:41;3.63;;;1.50;;
39924;SDS011;25592;49.986;11.618;2023-05-10T17:05:26;1.60;;;1.00;;
39924;SDS011;25592;49.986;11.618;2023-05-10T17:08:13;3.50;;;1.35;;